Terminal Aerodrome Forecast
Issued by NWS Atlanta, GA

Home | Current Version | Previous Version | Text Only | Print | Product List | Glossary On
Versions: 1 2 3 4 5 6 7 8 9 10 11 12 13 14 15 16 17 18 19 20 21 22 23 24 25 26 27 28 29 30 31 32 33 34 35 36 37 38 39 40 41 42 43
689
FTUS42 KFFC 061738
TAFAHN
TAF
KAHN 061738Z 0618/0718 05008KT 4SM BR VCSH BKN005
     FM062000 20010KT 5SM BR VCSH FEW005 BKN008
     FM062200 25013G20KT P6SM FEW015 BKN020
     FM070000 31012G18KT P6SM BKN025
     FM070400 31008KT 6SM BR BKN008
     FM071500 32006KT P6SM SCT015=

USA.gov is the U.S. government's official web portal to all federal, state and local government web resources and services.